createdAt,value
2022-09-14T00:02:22.892Z,9.15
2022-09-14T00:04:51.406Z,9.02
2022-09-14T00:07:18.964Z,8.73
2022-09-14T00:09:45.939Z,9.52
2022-09-14T00:12:13.233Z,10.10
2022-09-14T00:14:40.874Z,9.80
2022-09-14T00:17:08.322Z,9.45
2022-09-14T00:19:35.654Z,9.02
2022-09-14T00:22:03.227Z,9.57
2022-09-14T00:24:31.089Z,9.60
2022-09-14T00:26:58.248Z,9.45
2022-09-14T00:29:25.545Z,9.15
2022-09-14T00:31:52.847Z,9.85
2022-09-14T00:34:20.333Z,10.55
2022-09-14T00:36:50.808Z,9.90
2022-09-14T00:39:19.815Z,10.13
2022-09-14T00:41:48.725Z,9.50
2022-09-14T00:44:15.681Z,11.00
2022-09-14T00:46:47.008Z,10.23
2022-09-14T00:49:29.886Z,10.60
2022-09-14T00:52:09.471Z,9.50
2022-09-14T00:54:39.878Z,10.50
2022-09-14T00:57:07.386Z,10.07
2022-09-14T00:59:36.669Z,10.18
2022-09-14T01:02:04.292Z,10.70
2022-09-14T01:04:31.830Z,10.18
2022-09-14T01:07:17.511Z,10.05
2022-09-14T01:09:57.475Z,9.85
2022-09-14T01:14:55.018Z,10.27
2022-09-14T01:17:37.192Z,10.27
2022-09-14T01:20:05.787Z,9.82
2022-09-14T01:22:40.828Z,10.43
2022-09-14T01:25:15.251Z,9.85
2022-09-14T01:27:44.223Z,10.52
2022-09-14T01:30:13.434Z,10.40
2022-09-14T01:32:43.851Z,10.52
2022-09-14T01:35:26.153Z,10.32
2022-09-14T01:38:02.857Z,9.93
2022-09-14T01:40:39.526Z,10.02
2022-09-14T01:43:16.309Z,9.75
2022-09-14T01:45:46.522Z,9.75
2022-09-14T01:48:15.306Z,9.93
2022-09-14T01:50:45.039Z,10.10
2022-09-14T01:53:30.946Z,10.15
2022-09-14T01:56:08.651Z,10.30
2022-09-14T01:58:41.199Z,9.73
2022-09-14T02:01:10.473Z,8.80
2022-09-14T02:03:39.755Z,9.48
2022-09-14T02:06:13.990Z,9.43
2022-09-14T02:08:41.552Z,8.73
2022-09-14T02:11:09.060Z,9.38
2022-09-14T02:13:36.416Z,9.32
2022-09-14T02:16:03.905Z,8.68
2022-09-14T02:18:31.600Z,8.43
2022-09-14T02:21:00.776Z,8.27
2022-09-14T02:23:28.550Z,9.07
2022-09-14T02:25:56.323Z,9.05
2022-09-14T02:28:23.617Z,8.52
2022-09-14T02:30:53.604Z,8.00
2022-09-14T02:35:49.681Z,8.45
2022-09-14T02:38:20.296Z,7.70
2022-09-14T02:40:47.704Z,7.75
2022-09-14T02:43:33.754Z,7.97
2022-09-14T02:46:16.199Z,7.88
2022-09-14T02:48:43.507Z,7.90
2022-09-14T02:51:21.327Z,7.05
2022-09-14T02:53:59.357Z,7.65
2022-09-14T02:56:27.154Z,7.22
2022-09-14T02:58:54.507Z,7.38
2022-09-14T03:01:22.722Z,7.45
2022-09-14T03:03:50.161Z,7.53
2022-09-14T03:06:17.465Z,6.90
2022-09-14T03:08:44.890Z,7.18
2022-09-14T03:11:12.232Z,7.40
2022-09-14T03:13:39.749Z,6.72
2022-09-14T03:16:08.353Z,6.90
2022-09-14T03:18:35.997Z,6.65
2022-09-14T03:21:06.787Z,6.75
2022-09-14T03:23:41.038Z,7.10
2022-09-14T03:26:12.428Z,6.85
2022-09-14T03:28:39.729Z,6.63
2022-09-14T03:31:07.982Z,6.70
2022-09-14T03:33:35.690Z,6.47
2022-09-14T03:36:10.739Z,8.38
2022-09-14T03:38:38.163Z,6.53
2022-09-14T03:41:09.333Z,6.32
2022-09-14T03:43:36.652Z,6.25
2022-09-14T03:46:08.042Z,5.68
2022-09-14T03:48:35.414Z,5.65
2022-09-14T03:51:04.105Z,6.20
2022-09-14T03:53:31.900Z,6.25
2022-09-14T03:55:59.256Z,6.68
2022-09-14T03:58:26.953Z,6.15
2022-09-14T04:00:54.214Z,6.28
2022-09-14T04:03:21.525Z,6.45
2022-09-14T04:05:56.109Z,6.60
2022-09-14T04:08:23.887Z,6.53
2022-09-14T04:10:51.322Z,6.22
2022-09-14T04:13:18.647Z,6.55
2022-09-14T04:15:46.041Z,6.65
2022-09-14T04:18:13.340Z,6.60
2022-09-14T04:20:40.652Z,6.60
2022-09-14T04:23:07.897Z,6.65
2022-09-14T04:25:37.562Z,6.72
2022-09-14T04:28:21.589Z,7.15
2022-09-14T04:31:09.213Z,6.70
2022-09-14T04:33:38.971Z,6.97
2022-09-14T04:36:09.831Z,6.40
2022-09-14T04:38:37.819Z,7.10
2022-09-14T04:41:09.767Z,7.43
2022-09-14T04:43:39.204Z,6.70
2022-09-14T04:46:08.934Z,7.05
2022-09-14T04:48:36.837Z,7.10
2022-09-14T04:51:08.871Z,6.32
2022-09-14T04:53:37.816Z,6.28
2022-09-14T04:56:06.398Z,6.25
2022-09-14T04:58:34.091Z,7.53
2022-09-14T05:01:05.244Z,6.47
2022-09-14T05:03:32.591Z,7.18
2022-09-14T05:06:04.847Z,6.65
2022-09-14T05:08:32.531Z,6.10
2022-09-14T05:11:00.002Z,6.80
2022-09-14T05:13:27.341Z,6.75
2022-09-14T05:15:55.163Z,7.00
2022-09-14T05:18:22.465Z,7.43
2022-09-14T05:20:49.689Z,6.75
2022-09-14T05:23:17.063Z,6.53
2022-09-14T05:25:44.299Z,6.32
2022-09-14T05:28:11.566Z,6.72
2022-09-14T05:30:41.116Z,6.13
2022-09-14T05:33:08.455Z,6.80
2022-09-14T05:35:35.692Z,6.65
2022-09-14T05:38:03.139Z,6.30
2022-09-14T05:40:31.172Z,6.57
2022-09-14T05:42:58.618Z,6.80
2022-09-14T05:45:25.966Z,6.90
2022-09-14T05:47:53.467Z,6.50
2022-09-14T05:50:20.754Z,7.97
2022-09-14T05:52:49.160Z,7.43
2022-09-14T05:55:16.522Z,6.93
2022-09-14T05:57:43.738Z,7.30
2022-09-14T06:00:11.433Z,7.50
2022-09-14T06:02:38.666Z,6.25
2022-09-14T06:05:06.165Z,6.10
2022-09-14T06:07:33.583Z,6.55
2022-09-14T06:10:00.817Z,9.63
2022-09-14T06:12:28.468Z,6.90
2022-09-14T06:14:55.381Z,5.40
2022-09-14T06:17:22.440Z,11.15
2022-09-14T06:19:49.313Z,7.32
2022-09-14T06:22:17.391Z,6.93
2022-09-14T06:24:44.268Z,6.50
2022-09-14T06:27:12.023Z,7.57
2022-09-14T06:29:39.320Z,7.47
2022-09-14T06:32:06.694Z,7.45
2022-09-14T06:34:33.908Z,6.05
2022-09-14T06:37:01.957Z,6.40
2022-09-14T06:39:29.298Z,6.60
2022-09-14T06:41:56.507Z,7.60
2022-09-14T06:44:23.811Z,7.03
2022-09-14T06:46:51.063Z,7.18
2022-09-14T06:49:20.808Z,6.55
2022-09-14T06:51:48.535Z,5.80
2022-09-14T06:54:16.469Z,6.30
2022-09-14T06:56:44.386Z,6.72
2022-09-14T06:59:15.762Z,6.32
2022-09-14T07:01:43.387Z,7.32
2022-09-14T07:04:10.725Z,6.40
2022-09-14T07:06:42.129Z,6.38
2022-09-14T07:09:09.367Z,6.35
2022-09-14T07:11:37.008Z,6.93
2022-09-14T07:14:04.306Z,6.80
2022-09-14T07:16:32.762Z,6.78
2022-09-14T07:19:01.964Z,6.63
2022-09-14T07:21:29.490Z,7.18
2022-09-14T07:23:56.805Z,6.70
2022-09-14T07:26:25.374Z,6.97
2022-09-14T07:28:56.979Z,7.35
2022-09-14T07:31:26.437Z,7.63
2022-09-14T07:33:57.998Z,6.80
2022-09-14T07:36:26.311Z,7.35
2022-09-14T07:38:54.162Z,7.10
2022-09-14T07:41:22.402Z,7.97
2022-09-14T07:43:50.531Z,7.43
2022-09-14T07:46:17.938Z,8.50
2022-09-14T07:48:45.470Z,7.47
2022-09-14T07:51:12.814Z,8.20
2022-09-14T07:53:42.699Z,8.77
2022-09-14T07:58:37.114Z,8.60
2022-09-14T08:01:15.300Z,10.60
2022-09-14T08:03:46.989Z,9.23
2022-09-14T08:06:15.524Z,9.77
2022-09-14T08:08:44.340Z,8.55
2022-09-14T08:11:19.595Z,9.02
2022-09-14T08:13:49.703Z,9.43
2022-09-14T08:16:18.596Z,10.68
2022-09-14T08:18:46.211Z,10.95
2022-09-14T08:21:14.528Z,13.48
2022-09-14T08:23:42.566Z,14.73
2022-09-14T08:26:14.131Z,12.85
2022-09-14T08:28:41.430Z,10.70
2022-09-14T08:31:10.260Z,10.13
2022-09-14T08:33:39.181Z,10.52
2022-09-14T08:36:07.953Z,9.18
2022-09-14T08:38:35.633Z,11.80
2022-09-14T08:41:23.120Z,9.82
2022-09-14T08:43:50.525Z,8.95
2022-09-14T08:46:37.392Z,9.70
2022-09-14T08:49:07.768Z,10.50
2022-09-14T08:51:35.688Z,8.45
2022-09-14T08:54:02.978Z,8.80
2022-09-14T08:56:34.387Z,7.78
2022-09-14T08:59:09.304Z,7.97
2022-09-14T09:02:08.918Z,6.88
2022-09-14T09:04:39.035Z,7.53
2022-09-14T09:07:20.271Z,6.57
2022-09-14T09:09:52.422Z,6.35
2022-09-14T09:12:21.321Z,6.43
2022-09-14T09:14:51.322Z,6.22
2022-09-14T09:17:21.469Z,5.82
2022-09-14T09:19:48.673Z,5.50
2022-09-14T09:22:17.801Z,5.97
2022-09-14T09:24:48.325Z,6.78
2022-09-14T09:27:16.617Z,6.22
2022-09-14T09:29:44.502Z,6.22
2022-09-14T09:32:19.323Z,6.22
2022-09-14T09:34:46.760Z,6.10
2022-09-14T09:37:18.247Z,6.03
2022-09-14T09:39:45.784Z,6.38
2022-09-14T09:42:15.667Z,6.95
2022-09-14T09:45:06.466Z,6.50
2022-09-14T09:47:39.245Z,7.15
2022-09-14T09:50:17.058Z,7.32
2022-09-14T09:52:51.147Z,6.85
2022-09-14T09:55:22.562Z,9.57
2022-09-14T09:57:49.900Z,6.90
2022-09-14T10:00:19.970Z,7.03
2022-09-14T10:02:47.326Z,7.70
2022-09-14T10:05:14.595Z,6.95
2022-09-14T10:08:02.268Z,7.85
2022-09-14T10:10:35.858Z,7.93
2022-09-14T10:13:06.153Z,8.00
2022-09-14T10:15:34.523Z,7.20
2022-09-14T10:18:10.225Z,9.57
2022-09-14T10:20:38.747Z,7.88
2022-09-14T10:23:18.282Z,8.50
2022-09-14T10:25:46.470Z,8.23
2022-09-14T10:28:33.952Z,7.40
2022-09-14T10:31:12.340Z,8.25
2022-09-14T10:33:40.256Z,8.00
2022-09-14T10:36:42.890Z,8.48
2022-09-14T10:39:21.133Z,8.18
2022-09-14T10:42:14.372Z,9.60
2022-09-14T10:44:43.257Z,8.73
2022-09-14T10:47:18.881Z,9.37
2022-09-14T10:50:01.229Z,9.13
2022-09-14T10:52:49.314Z,8.80
2022-09-14T10:55:25.671Z,11.88
2022-09-14T10:57:55.796Z,9.27
2022-09-14T11:00:23.223Z,9.18
2022-09-14T11:03:02.086Z,8.98
2022-09-14T11:05:32.505Z,8.37
2022-09-14T11:08:18.479Z,8.25
2022-09-14T11:11:13.768Z,8.18
2022-09-14T11:14:06.169Z,8.05
2022-09-14T11:16:36.290Z,7.90
2022-09-14T11:19:24.671Z,7.20
2022-09-14T11:22:03.712Z,7.97
2022-09-14T11:24:37.681Z,8.88
2022-09-14T11:27:04.641Z,7.85
2022-09-14T11:29:46.698Z,7.03
2022-09-14T11:32:23.810Z,7.88
2022-09-14T11:34:56.155Z,8.23
2022-09-14T11:37:30.921Z,7.78
2022-09-14T11:39:58.222Z,9.05
2022-09-14T11:42:31.729Z,8.73
2022-09-14T11:45:02.962Z,8.20
2022-09-14T11:47:35.455Z,8.27
2022-09-14T11:50:14.907Z,8.38
2022-09-14T11:52:42.146Z,8.05
2022-09-14T11:55:11.941Z,7.25
2022-09-14T12:00:07.593Z,6.28
2022-09-14T12:02:37.762Z,6.90
2022-09-14T12:05:08.321Z,7.32
2022-09-14T12:07:45.620Z,7.05
2022-09-14T12:10:16.106Z,6.40
2022-09-14T12:12:59.679Z,6.60
2022-09-14T12:15:27.055Z,7.05
2022-09-14T12:18:06.370Z,6.63
2022-09-14T12:20:33.627Z,5.70
2022-09-14T12:23:06.871Z,6.38
2022-09-14T12:25:34.958Z,7.07
2022-09-14T12:28:02.399Z,6.30
2022-09-14T12:30:41.790Z,6.10
2022-09-14T12:33:27.537Z,5.85
2022-09-14T12:35:54.838Z,5.53
2022-09-14T12:38:30.957Z,5.97
2022-09-14T12:41:01.949Z,5.53
2022-09-14T12:43:35.103Z,5.60
2022-09-14T12:46:08.136Z,5.57
2022-09-14T12:48:53.059Z,6.00
2022-09-14T12:51:32.485Z,6.30
2022-09-14T12:54:00.448Z,6.97
2022-09-14T12:56:50.646Z,6.13
2022-09-14T12:59:30.224Z,5.35
2022-09-14T13:02:10.268Z,5.70
2022-09-14T13:04:39.336Z,5.43
2022-09-14T13:07:17.728Z,4.97
2022-09-14T13:10:06.402Z,4.93
2022-09-14T13:12:52.047Z,5.28
2022-09-14T13:15:25.704Z,5.75
2022-09-14T13:18:06.697Z,5.28
2022-09-14T13:20:35.856Z,5.53
2022-09-14T13:23:03.536Z,5.10
2022-09-14T13:25:32.974Z,4.80
2022-09-14T13:28:05.724Z,5.47
2022-09-14T13:30:34.650Z,5.05
2022-09-14T13:33:03.509Z,5.32
2022-09-14T13:35:36.931Z,5.63
2022-09-14T13:38:21.052Z,5.88
2022-09-14T13:40:49.948Z,5.15
2022-09-14T13:43:19.612Z,5.83
2022-09-14T13:45:47.323Z,4.80
2022-09-14T13:48:16.317Z,5.88
2022-09-14T13:50:47.122Z,6.07
2022-09-14T13:53:45.782Z,5.72
2022-09-14T13:56:19.766Z,6.30
2022-09-14T13:58:48.732Z,6.40
2022-09-14T14:01:26.176Z,6.88
2022-09-14T14:03:53.399Z,6.50
2022-09-14T14:06:30.936Z,5.50
2022-09-14T14:09:09.582Z,5.57
2022-09-14T14:11:45.634Z,4.15
2022-09-14T14:14:19.383Z,4.80
2022-09-14T14:17:14.052Z,4.55
2022-09-14T14:19:41.051Z,4.93
2022-09-14T14:22:13.831Z,4.93
2022-09-14T14:25:02.396Z,5.10
2022-09-14T14:27:31.900Z,4.32
2022-09-14T14:30:01.547Z,4.65
2022-09-14T14:32:29.837Z,4.57
2022-09-14T14:34:57.330Z,4.78
2022-09-14T14:37:25.970Z,5.10
2022-09-14T14:39:53.040Z,4.60
2022-09-14T14:42:20.107Z,4.57
2022-09-14T14:44:48.560Z,4.50
2022-09-14T14:47:16.956Z,4.72
2022-09-14T14:49:43.900Z,4.45
2022-09-14T14:52:12.772Z,4.70
2022-09-14T14:54:41.225Z,4.47
2022-09-14T14:57:11.117Z,4.97
2022-09-14T14:59:40.907Z,4.35
2022-09-14T15:02:12.009Z,4.75
2022-09-14T15:04:40.498Z,4.57
2022-09-14T15:07:08.539Z,4.35
2022-09-14T15:09:36.555Z,5.25
2022-09-14T15:12:03.675Z,4.85
2022-09-14T15:14:33.296Z,5.00
2022-09-14T15:17:02.923Z,5.15
2022-09-14T15:19:29.850Z,5.07
2022-09-14T15:22:01.373Z,5.05
2022-09-14T15:24:31.865Z,4.70
2022-09-14T15:27:01.980Z,5.68
2022-09-14T15:29:29.147Z,5.45
2022-09-14T15:31:56.473Z,5.78
2022-09-14T15:34:23.882Z,5.40
2022-09-14T15:36:57.494Z,4.97
2022-09-14T15:39:27.036Z,5.45
2022-09-14T15:41:56.794Z,5.60
2022-09-14T15:46:56.652Z,6.43
2022-09-14T15:49:25.395Z,5.97
2022-09-14T15:51:56.411Z,6.05
2022-09-14T15:54:37.964Z,6.38
2022-09-14T15:57:11.023Z,6.43
2022-09-14T15:59:38.039Z,7.07
2022-09-14T16:02:05.109Z,6.60
2022-09-14T16:04:37.166Z,7.32
2022-09-14T16:07:09.568Z,7.43
2022-09-14T16:09:38.777Z,6.63
2022-09-14T16:12:06.716Z,6.97
2022-09-14T16:14:34.115Z,6.13
2022-09-14T16:17:01.109Z,6.70
2022-09-14T16:19:28.289Z,7.05
2022-09-14T16:21:55.351Z,6.30
2022-09-14T16:24:24.156Z,7.03
2022-09-14T16:26:51.362Z,7.03
2022-09-14T16:29:19.797Z,7.50
2022-09-14T16:31:48.354Z,7.88
2022-09-14T16:34:20.023Z,7.82
2022-09-14T16:36:47.961Z,7.80
2022-09-14T16:39:20.930Z,8.25
2022-09-14T16:41:50.327Z,8.00
2022-09-14T16:44:24.632Z,7.50
2022-09-14T16:46:53.421Z,8.75
2022-09-14T16:49:24.978Z,8.02
2022-09-14T16:51:54.368Z,6.25
2022-09-14T16:54:23.255Z,5.65
2022-09-14T16:56:50.813Z,4.07
2022-09-14T16:59:18.017Z,4.40
2022-09-14T17:01:48.706Z,5.38
2022-09-14T17:04:22.844Z,6.78
2022-09-14T17:06:51.660Z,7.97
2022-09-14T17:09:21.402Z,7.85
2022-09-14T17:11:48.771Z,6.90
2022-09-14T17:14:19.081Z,5.55
2022-09-14T17:16:46.760Z,3.47
2022-09-14T17:19:15.361Z,3.30
2022-09-14T17:21:44.846Z,2.83
2022-09-14T17:24:15.223Z,2.67
2022-09-14T17:26:42.966Z,2.90
2022-09-14T17:29:11.217Z,2.47
2022-09-14T17:31:41.765Z,2.92
2022-09-14T17:34:10.708Z,2.50
2022-09-14T17:36:38.339Z,2.80
2022-09-14T17:39:11.662Z,2.90
2022-09-14T17:41:40.578Z,3.90
2022-09-14T17:44:13.055Z,4.85
2022-09-14T17:46:52.113Z,6.40
2022-09-14T17:49:24.827Z,5.78
2022-09-14T17:51:55.329Z,6.53
2022-09-14T17:54:22.263Z,6.88
2022-09-14T17:56:52.549Z,8.43
2022-09-14T17:59:22.496Z,8.48
2022-09-14T18:01:52.306Z,8.30
2022-09-14T18:04:21.773Z,7.15
2022-09-14T18:06:52.036Z,6.93
2022-09-14T18:09:22.467Z,6.22
2022-09-14T18:11:56.800Z,6.60
2022-09-14T18:14:24.914Z,4.70
2022-09-14T18:16:51.820Z,4.35
2022-09-14T18:19:21.818Z,4.32
2022-09-14T18:21:52.807Z,3.47
2022-09-14T18:24:22.285Z,4.13
2022-09-14T18:26:51.349Z,4.22
2022-09-14T18:29:25.912Z,4.13
2022-09-14T18:31:53.851Z,3.15
2022-09-14T18:34:24.904Z,3.15
2022-09-14T18:36:57.056Z,3.88
2022-09-14T18:39:28.454Z,4.88
2022-09-14T18:41:58.389Z,5.10
2022-09-14T18:46:59.780Z,4.40
2022-09-14T18:49:28.534Z,3.92
2022-09-14T18:51:56.691Z,5.05
2022-09-14T18:54:28.852Z,4.05
2022-09-14T18:56:56.819Z,4.28
2022-09-14T18:59:25.598Z,4.35
2022-09-14T19:01:54.364Z,5.25
2022-09-14T19:04:22.651Z,6.05
2022-09-14T19:06:51.024Z,5.60
2022-09-14T19:09:19.822Z,5.65
2022-09-14T19:11:49.902Z,5.47
2022-09-14T19:14:20.682Z,5.35
2022-09-14T19:16:50.075Z,5.43
2022-09-14T19:19:19.253Z,5.05
2022-09-14T19:21:47.594Z,5.38
2022-09-14T19:24:17.918Z,4.97
2022-09-14T19:26:50.036Z,4.60
2022-09-14T19:29:26.514Z,4.70
2022-09-14T19:31:53.735Z,4.63
2022-09-14T19:34:22.551Z,4.85
2022-09-14T19:36:53.858Z,4.82
2022-09-14T19:39:28.199Z,4.50
2022-09-14T19:41:55.084Z,4.60
2022-09-14T19:44:23.281Z,4.40
2022-09-14T19:46:50.857Z,4.63
2022-09-14T19:49:20.747Z,4.45
2022-09-14T19:54:16.014Z,4.28
2022-09-14T19:56:43.706Z,3.95
2022-09-14T19:59:10.971Z,4.10
2022-09-14T20:01:39.847Z,4.55
2022-09-14T20:04:07.919Z,4.57
2022-09-14T20:06:40.278Z,5.65
2022-09-14T20:09:16.025Z,5.60
2022-09-14T20:11:45.004Z,5.18
2022-09-14T20:14:15.022Z,4.80
2022-09-14T20:16:44.960Z,6.18
2022-09-14T20:21:41.392Z,4.88
2022-09-14T20:24:16.303Z,5.18
2022-09-14T20:26:45.349Z,6.32
2022-09-14T20:29:14.704Z,5.60
2022-09-14T20:31:41.969Z,5.18
2022-09-14T20:34:09.409Z,5.60
2022-09-14T20:36:36.750Z,6.53
2022-09-14T20:39:04.585Z,6.38
2022-09-14T20:41:33.433Z,5.18
2022-09-14T20:44:01.126Z,5.47
2022-09-14T20:46:38.676Z,4.38
2022-09-14T20:49:07.861Z,3.30
2022-09-14T20:51:36.111Z,3.15
2022-09-14T20:54:03.470Z,2.58
2022-09-14T20:56:32.232Z,2.95
2022-09-14T20:59:01.537Z,2.85
2022-09-14T21:01:31.170Z,2.95
2022-09-14T21:04:05.581Z,3.45
2022-09-14T21:06:33.542Z,3.53
2022-09-14T21:09:01.045Z,3.13
2022-09-14T21:11:28.514Z,3.20
2022-09-14T21:13:57.482Z,2.60
2022-09-14T21:16:26.492Z,2.72
2022-09-14T21:18:58.243Z,3.53
2022-09-14T21:21:25.839Z,2.75
2022-09-14T21:23:54.018Z,3.20
2022-09-14T21:26:21.351Z,3.10
2022-09-14T21:28:48.782Z,2.67
2022-09-14T21:31:21.008Z,3.72
2022-09-14T21:33:49.768Z,4.05
2022-09-14T21:36:25.563Z,4.28
2022-09-14T21:38:57.680Z,4.35
2022-09-14T21:41:26.269Z,4.25
2022-09-14T21:43:53.517Z,3.72
2022-09-14T21:46:21.474Z,3.75
2022-09-14T21:48:48.609Z,3.35
2022-09-14T21:51:17.163Z,2.90
2022-09-14T21:53:46.362Z,2.88
2022-09-14T21:56:14.161Z,2.85
2022-09-14T21:58:41.503Z,3.17
2022-09-14T22:01:09.558Z,2.80
2022-09-14T22:03:37.087Z,2.80
2022-09-14T22:06:08.001Z,2.72
2022-09-14T22:08:35.814Z,2.60
2022-09-14T22:11:23.621Z,2.78
2022-09-14T22:14:03.193Z,2.95
2022-09-14T22:16:34.136Z,2.95
2022-09-14T22:19:04.935Z,3.50
2022-09-14T22:21:34.130Z,2.97
2022-09-14T22:24:03.132Z,2.83
2022-09-14T22:26:31.933Z,3.20
2022-09-14T22:28:59.697Z,2.15
2022-09-14T22:31:28.342Z,3.03
2022-09-14T22:33:57.193Z,2.60
2022-09-14T22:36:24.240Z,2.80
2022-09-14T22:38:51.418Z,2.90
2022-09-14T22:41:22.323Z,2.20
2022-09-14T22:43:49.770Z,2.33
2022-09-14T22:46:17.508Z,2.75
2022-09-14T22:48:45.573Z,2.72
2022-09-14T22:51:18.153Z,2.40
2022-09-14T22:53:45.037Z,2.53
2022-09-14T22:56:20.791Z,2.42
2022-09-14T22:58:48.908Z,2.15
2022-09-14T23:01:21.958Z,2.33
2022-09-14T23:03:49.628Z,2.75
2022-09-14T23:06:16.809Z,2.75
2022-09-14T23:08:44.042Z,2.60
2022-09-14T23:11:12.346Z,2.25
2022-09-14T23:13:41.071Z,2.50
2022-09-14T23:16:16.155Z,2.70
2022-09-14T23:18:43.865Z,2.50
2022-09-14T23:21:11.278Z,3.15
2022-09-14T23:23:38.532Z,2.38
2022-09-14T23:26:08.015Z,2.97
2022-09-14T23:28:35.302Z,2.45
2022-09-14T23:31:04.099Z,2.88
2022-09-14T23:33:31.500Z,3.28
2022-09-14T23:35:58.492Z,2.28
2022-09-14T23:38:25.976Z,2.53
2022-09-14T23:40:53.576Z,2.65
2022-09-14T23:43:20.665Z,2.60
2022-09-14T23:45:48.271Z,2.85
2022-09-14T23:48:15.881Z,2.55
2022-09-14T23:50:43.474Z,2.63
2022-09-14T23:53:10.756Z,2.40
2022-09-14T23:55:37.899Z,3.05
2022-09-14T23:58:05.135Z,2.72
